Time;durP1;ratioP1;P1;durP2;ratioP2;P2;SDS_P1;SDS_P2;PMS_P1;PMS_P2;Temp;Humidity;BMP_temperature;BMP_pressure;BME280_temperature;BME280_humidity;BME280_pressure;Samples;Min_cycle;Max_cycle;Signal;HPM_P1;HPM_P2
2023/02/08 00:00:06;;;;;;;8.60;6.40;;;1.20;1.00;;;;;;4998941;28;20712;-79
2023/02/08 00:02:35;;;;;;;8.13;6.22;;;1.20;1.00;;;;;;5003258;28;20200;-77
2023/02/08 00:05:03;;;;;;;8.80;6.47;;;1.10;1.00;;;;;;5003259;28;20205;-78
2023/02/08 00:07:31;;;;;;;7.25;5.70;;;1.10;1.00;;;;;;5005673;28;20272;-78
2023/02/08 00:10:00;;;;;;;6.30;5.68;;;1.10;1.00;;;;;;5004850;28;20226;-78
2023/02/08 00:12:28;;;;;;;7.95;6.60;;;1.10;1.00;;;;;;5000780;28;20258;-78
2023/02/08 00:14:56;;;;;;;6.57;5.65;;;1.10;1.00;;;;;;4997946;28;20230;-77
2023/02/08 00:17:24;;;;;;;7.95;5.57;;;1.10;1.00;;;;;;4996947;28;20290;-77
2023/02/08 00:19:53;;;;;;;9.00;5.93;;;1.00;1.00;;;;;;5000772;28;20307;-77
2023/02/08 00:22:22;;;;;;;5.68;5.18;;;0.90;1.00;;;;;;4999132;28;20203;-77
2023/02/08 00:24:50;;;;;;;7.50;5.45;;;0.90;1.00;;;;;;4995217;28;20216;-77
2023/02/08 00:27:19;;;;;;;8.43;6.45;;;0.90;1.00;;;;;;4999261;28;20207;-77
2023/02/08 00:29:47;;;;;;;8.27;4.78;;;0.80;1.00;;;;;;4999920;28;20243;-77
2023/02/08 00:32:15;;;;;;;10.30;6.38;;;0.90;1.00;;;;;;4994376;28;20213;-77
2023/02/08 00:34:43;;;;;;;6.90;5.10;;;0.80;1.00;;;;;;5001245;28;20193;-76
2023/02/08 00:37:12;;;;;;;7.15;4.82;;;0.80;1.00;;;;;;4997234;28;20213;-77
2023/02/08 00:39:40;;;;;;;6.45;5.28;;;0.80;1.00;;;;;;5001922;28;20241;-76
2023/02/08 00:42:09;;;;;;;8.55;6.00;;;0.70;1.00;;;;;;4997436;28;20203;-77
2023/02/08 00:44:37;;;;;;;6.10;5.30;;;0.60;1.00;;;;;;4996863;28;20223;-76
2023/02/08 00:47:05;;;;;;;6.72;5.50;;;0.60;1.00;;;;;;4998761;28;20206;-76
2023/02/08 00:49:33;;;;;;;5.90;5.20;;;0.60;1.00;;;;;;4998135;28;20226;-76
2023/02/08 00:52:01;;;;;;;7.75;5.35;;;0.50;1.00;;;;;;5001663;28;20230;-75
2023/02/08 00:54:30;;;;;;;6.30;5.60;;;0.50;1.00;;;;;;4995683;28;20223;-77
2023/02/08 00:56:58;;;;;;;7.45;4.65;;;0.40;1.00;;;;;;4993571;28;20227;-78
2023/02/08 00:59:27;;;;;;;7.78;5.65;;;0.50;1.00;;;;;;4998348;28;20210;-77
2023/02/08 01:01:55;;;;;;;7.88;5.30;;;0.40;1.00;;;;;;4996518;28;20206;-77
2023/02/08 01:04:23;;;;;;;8.80;6.20;;;0.30;1.00;;;;;;4995851;28;20219;-77
2023/02/08 01:06:51;;;;;;;11.10;6.75;;;0.20;1.00;;;;;;4996727;28;20737;-78
2023/02/08 01:09:20;;;;;;;6.45;5.15;;;0.30;1.00;;;;;;4993529;28;20218;-78
2023/02/08 01:11:49;;;;;;;5.68;4.95;;;0.20;1.00;;;;;;4992755;28;20743;-78
2023/02/08 01:14:17;;;;;;;6.22;5.63;;;0.20;1.00;;;;;;4994035;28;20963;-77
2023/02/08 01:16:45;;;;;;;6.68;4.75;;;0.20;1.00;;;;;;4997319;28;20194;-77
2023/02/08 01:19:13;;;;;;;5.93;4.70;;;0.20;1.00;;;;;;4994853;28;20613;-77
2023/02/08 01:21:42;;;;;;;8.20;5.00;;;0.20;1.00;;;;;;4996212;28;20215;-77
2023/02/08 01:24:11;;;;;;;7.35;5.32;;;0.20;1.00;;;;;;4992977;28;20229;-77
2023/02/08 01:26:39;;;;;;;6.20;4.88;;;0.20;1.00;;;;;;4996071;28;20210;-78
2023/02/08 01:29:09;;;;;;;7.80;4.95;;;0.10;1.00;;;;;;4992886;28;20544;-79
2023/02/08 01:31:39;;;;;;;6.35;4.47;;;0.10;1.00;;;;;;4996826;28;20218;-78
2023/02/08 01:34:08;;;;;;;6.97;5.30;;;0.00;1.00;;;;;;4992049;28;20568;-77
2023/02/08 01:36:37;;;;;;;5.95;4.38;;;0.00;1.00;;;;;;4996954;28;20208;-77
2023/02/08 01:39:07;;;;;;;7.30;5.40;;;-0.10;1.00;;;;;;4997516;28;20199;-79
2023/02/08 01:41:38;;;;;;;9.13;5.63;;;-0.10;1.00;;;;;;5000444;28;20226;-77
2023/02/08 01:44:29;;;;;;;5.03;4.20;;;0.00;1.00;;;;;;4994530;28;20321;-77
2023/02/08 01:46:57;;;;;;;6.47;4.72;;;0.10;1.00;;;;;;4996907;28;20242;-77
2023/02/08 01:49:28;;;;;;;6.07;4.38;;;0.10;1.00;;;;;;4995997;28;20230;-76
2023/02/08 01:52:03;;;;;;;5.35;4.40;;;0.20;1.00;;;;;;4999608;28;20252;-77
2023/02/08 01:54:36;;;;;;;7.53;4.97;;;0.20;1.00;;;;;;4996759;28;20201;-78
2023/02/08 01:57:05;;;;;;;7.35;6.07;;;0.00;1.00;;;;;;4996179;28;20746;-77
2023/02/08 01:59:40;;;;;;;9.65;5.65;;;0.20;1.00;;;;;;4995342;28;22182;-77
2023/02/08 02:02:12;;;;;;;6.10;5.25;;;0.00;1.00;;;;;;4993742;28;20265;-77
2023/02/08 02:04:40;;;;;;;5.93;4.60;;;0.00;1.00;;;;;;5008640;28;20219;-77
2023/02/08 02:07:08;;;;;;;8.02;5.40;;;0.00;1.00;;;;;;4993091;28;20327;-77
2023/02/08 02:09:42;;;;;;;7.18;4.68;;;0.00;1.00;;;;;;4997791;28;20214;-77
2023/02/08 02:12:12;;;;;;;8.73;5.43;;;0.10;1.00;;;;;;5001240;28;20620;-77
2023/02/08 02:14:43;;;;;;;6.93;4.82;;;0.00;1.00;;;;;;5000423;28;20674;-76
2023/02/08 02:17:12;;;;;;;6.30;5.03;;;0.10;1.00;;;;;;4988355;28;20207;-77
2023/02/08 02:19:48;;;;;;;5.13;4.63;;;0.20;1.00;;;;;;4995525;28;20207;-76
2023/02/08 02:22:41;;;;;;;6.63;4.93;;;0.00;1.00;;;;;;4998183;28;20194;-77
2023/02/08 02:25:33;;;;;;;5.65;5.05;;;0.00;1.00;;;;;;4997861;28;20221;-77
2023/02/08 02:28:40;;;;;;;7.43;5.38;;;-0.10;1.00;;;;;;4997503;28;20285;-77
2023/02/08 02:31:29;;;;;;;7.05;5.15;;;-0.20;1.00;;;;;;4997900;28;20225;-79
2023/02/08 02:34:04;;;;;;;9.07;6.18;;;-0.10;1.00;;;;;;4996546;28;22322;-77
2023/02/08 02:36:40;;;;;;;8.60;5.85;;;-0.10;1.00;;;;;;4999743;28;20208;-77
2023/02/08 02:39:17;;;;;;;6.95;5.95;;;-0.10;1.00;;;;;;4998605;28;20225;-76
2023/02/08 02:44:54;;;;;;;8.27;5.60;;;-0.40;1.00;;;;;;5002800;28;20229;-76
2023/02/08 02:47:31;;;;;;;7.13;5.45;;;-0.40;1.00;;;;;;5000824;28;20253;-76
2023/02/08 02:50:06;;;;;;;7.50;5.43;;;-0.50;1.00;;;;;;5014850;28;20718;-76
2023/02/08 02:52:41;;;;;;;6.10;5.00;;;-0.50;1.00;;;;;;5000058;28;20681;-75
2023/02/08 02:55:13;;;;;;;7.47;5.55;;;-0.60;1.00;;;;;;5002726;28;20289;-77
2023/02/08 02:57:44;;;;;;;8.73;6.35;;;-0.70;1.00;;;;;;5003080;28;20203;-76
2023/02/08 03:00:21;;;;;;;9.15;5.30;;;-0.70;1.00;;;;;;5004266;28;20218;-77
2023/02/08 03:02:51;;;;;;;9.65;6.07;;;-0.70;1.00;;;;;;5003531;28;20285;-76
2023/02/08 03:05:19;;;;;;;7.88;6.35;;;-0.80;1.00;;;;;;5001630;28;20230;-76
2023/02/08 03:08:15;;;;;;;7.70;5.95;;;-0.70;1.00;;;;;;5002396;28;20195;-76
2023/02/08 03:11:04;;;;;;;7.03;4.82;;;-0.70;1.00;;;;;;5003187;28;20309;-77
2023/02/08 03:13:42;;;;;;;7.95;5.85;;;-0.70;1.00;;;;;;5000467;28;20187;-76
2023/02/08 03:16:17;;;;;;;7.22;5.82;;;-0.70;1.00;;;;;;4998199;28;21152;-76
2023/02/08 03:19:02;;;;;;;8.57;5.75;;;-0.80;1.00;;;;;;5000484;28;20248;-76
2023/02/08 03:21:39;;;;;;;8.30;5.45;;;-0.70;1.00;;;;;;5000327;28;20710;-77
2023/02/08 03:24:21;;;;;;;9.32;6.30;;;-0.70;1.00;;;;;;5001194;28;20221;-77
2023/02/08 03:26:56;;;;;;;8.98;6.05;;;-0.70;1.00;;;;;;4999944;28;20292;-76
2023/02/08 03:29:37;;;;;;;7.78;5.47;;;-0.80;1.00;;;;;;5002730;28;20225;-76
2023/02/08 03:32:09;;;;;;;8.23;6.65;;;-0.70;1.00;;;;;;4996547;28;20211;-76
2023/02/08 03:34:46;;;;;;;8.57;5.28;;;-0.80;1.00;;;;;;4997967;28;20222;-77
2023/02/08 03:37:18;;;;;;;6.70;5.22;;;-0.80;1.00;;;;;;4997235;28;20277;-77
2023/02/08 03:39:48;;;;;;;9.77;6.93;;;-0.70;1.00;;;;;;5001246;28;20697;-76
2023/02/08 03:42:21;;;;;;;9.60;6.47;;;-0.70;1.00;;;;;;5001022;28;20194;-78
2023/02/08 03:44:54;;;;;;;8.65;6.25;;;-0.70;1.00;;;;;;4995074;28;20310;-77
2023/02/08 03:47:26;;;;;;;9.07;6.10;;;-0.60;1.00;;;;;;4996709;28;20238;-77
2023/02/08 03:49:59;;;;;;;8.77;5.97;;;-0.50;1.00;;;;;;5001000;28;20242;-77
2023/02/08 03:52:30;;;;;;;9.07;5.82;;;-0.50;1.00;;;;;;4996551;28;20202;-77
2023/02/08 03:55:01;;;;;;;8.48;6.00;;;-0.50;1.00;;;;;;4995922;28;20286;-77
2023/02/08 03:57:33;;;;;;;7.45;5.85;;;-0.40;1.00;;;;;;5000946;28;20227;-76
2023/02/08 04:00:05;;;;;;;7.30;5.70;;;-0.50;1.00;;;;;;4998324;28;20225;-77
2023/02/08 04:02:38;;;;;;;7.45;5.80;;;-0.60;1.00;;;;;;4997926;28;20197;-77
2023/02/08 04:05:08;;;;;;;5.28;4.78;;;-0.50;1.00;;;;;;4998645;28;20317;-77
2023/02/08 04:07:36;;;;;;;7.15;5.30;;;-0.50;1.00;;;;;;5000408;28;20199;-77
2023/02/08 04:10:05;;;;;;;9.20;5.72;;;-0.60;1.00;;;;;;4999752;28;20218;-77
2023/02/08 04:12:33;;;;;;;9.20;6.15;;;-0.70;1.00;;;;;;5002553;28;20199;-77
2023/02/08 04:15:01;;;;;;;9.15;6.30;;;-0.80;1.00;;;;;;4998316;28;20198;-77
2023/02/08 04:17:29;;;;;;;7.90;5.60;;;-0.80;1.00;;;;;;4996359;28;20252;-78
2023/02/08 04:19:57;;;;;;;8.55;5.90;;;-0.70;1.00;;;;;;4996426;28;20221;-79
2023/02/08 04:22:26;;;;;;;8.10;5.95;;;-0.80;1.00;;;;;;4996142;28;20195;-77
2023/02/08 04:24:55;;;;;;;7.95;5.50;;;-0.60;1.00;;;;;;4995353;28;20207;-76
2023/02/08 04:27:23;;;;;;;8.60;5.30;;;-0.50;1.00;;;;;;4996635;28;20291;-76
2023/02/08 04:29:51;;;;;;;8.00;6.18;;;-0.50;1.00;;;;;;5006302;28;20241;-77
2023/02/08 04:32:19;;;;;;;7.95;6.43;;;-0.50;1.00;;;;;;5003304;28;20210;-76
2023/02/08 04:34:47;;;;;;;9.65;5.65;;;-0.50;1.00;;;;;;5003241;28;20234;-78
2023/02/08 04:37:15;;;;;;;7.93;6.75;;;-0.60;1.00;;;;;;4995398;28;20199;-78
2023/02/08 04:39:45;;;;;;;8.23;5.95;;;-0.60;1.00;;;;;;4998994;28;20198;-77
2023/02/08 04:42:13;;;;;;;11.32;5.60;;;-0.50;1.00;;;;;;4998458;28;20222;-78
2023/02/08 04:44:41;;;;;;;7.93;6.28;;;-0.60;1.00;;;;;;5000722;28;20196;-77
2023/02/08 04:47:09;;;;;;;6.93;5.28;;;-0.60;1.00;;;;;;4995418;28;20211;-78
2023/02/08 04:49:37;;;;;;;7.05;6.05;;;-0.70;1.00;;;;;;5001660;28;20206;-78
2023/02/08 04:52:05;;;;;;;7.40;6.55;;;-0.70;1.00;;;;;;5000241;28;20226;-77
2023/02/08 04:54:33;;;;;;;7.82;5.80;;;-0.70;1.00;;;;;;5001647;28;20613;-78
2023/02/08 04:57:03;;;;;;;8.15;6.15;;;-0.70;1.00;;;;;;5004729;28;20233;-78
2023/02/08 04:59:31;;;;;;;10.13;5.70;;;-0.80;1.00;;;;;;4999770;28;20290;-78
2023/02/08 05:01:59;;;;;;;7.78;6.43;;;-0.70;1.00;;;;;;4990685;28;20206;-77
2023/02/08 05:04:27;;;;;;;7.90;5.90;;;-0.80;1.00;;;;;;4994874;28;20202;-78
2023/02/08 05:06:55;;;;;;;7.25;6.55;;;-0.80;1.00;;;;;;4998164;28;20245;-78
2023/02/08 05:09:23;;;;;;;7.20;5.60;;;-0.80;1.00;;;;;;4998533;28;20207;-78
2023/02/08 05:11:51;;;;;;;7.15;5.55;;;-0.70;1.00;;;;;;4999197;28;20621;-78
2023/02/08 05:14:21;;;;;;;7.65;5.75;;;-0.60;1.00;;;;;;4997993;28;20889;-79
2023/02/08 05:16:49;;;;;;;7.82;6.03;;;-0.70;1.00;;;;;;4998593;28;20202;-78
2023/02/08 05:19:17;;;;;;;8.45;5.20;;;-0.60;1.00;;;;;;4993959;28;20204;-73
2023/02/08 05:21:45;;;;;;;9.23;5.70;;;-0.70;1.00;;;;;;4997365;28;20305;-76
2023/02/08 05:24:13;;;;;;;7.70;5.55;;;-1.00;1.00;;;;;;4996309;28;20194;-77
2023/02/08 05:26:41;;;;;;;8.98;6.05;;;-0.80;1.00;;;;;;5002760;28;20309;-77
2023/02/08 05:29:10;;;;;;;6.20;5.00;;;-0.80;1.00;;;;;;4995972;28;20197;-79
2023/02/08 05:31:39;;;;;;;7.15;6.43;;;-0.70;1.00;;;;;;4996727;28;20222;-77
2023/02/08 05:34:07;;;;;;;8.25;5.88;;;-0.80;1.00;;;;;;4993188;28;20278;-78
2023/02/08 05:36:35;;;;;;;5.85;4.75;;;-0.80;1.00;;;;;;5001325;28;20194;-78
2023/02/08 05:39:04;;;;;;;8.10;7.00;;;-0.70;1.00;;;;;;4997869;28;20285;-78
2023/02/08 05:41:32;;;;;;;11.75;7.22;;;-0.70;1.00;;;;;;4994641;28;20219;-78
2023/02/08 05:44:00;;;;;;;12.38;7.40;;;-0.70;1.00;;;;;;5000171;28;20206;-77
2023/02/08 05:46:28;;;;;;;9.82;6.97;;;-0.70;1.00;;;;;;4991169;28;20304;-77
2023/02/08 05:48:57;;;;;;;7.35;5.30;;;-0.60;1.00;;;;;;4995356;28;20233;-78
2023/02/08 05:51:25;;;;;;;11.13;6.43;;;-0.70;1.00;;;;;;4990644;28;20218;-78
2023/02/08 05:53:54;;;;;;;8.75;6.85;;;-0.80;1.00;;;;;;4990687;28;20970;-77
2023/02/08 05:56:22;;;;;;;10.98;6.50;;;-0.80;1.00;;;;;;4993146;28;20210;-77
2023/02/08 05:58:51;;;;;;;7.15;5.40;;;-0.80;1.00;;;;;;4994301;28;20272;-78
2023/02/08 06:01:19;;;;;;;8.32;6.22;;;-0.80;1.00;;;;;;4995549;28;20294;-77
2023/02/08 06:03:47;;;;;;;8.30;6.30;;;-0.80;1.00;;;;;;4995172;28;20255;-78
2023/02/08 06:06:17;;;;;;;7.70;6.00;;;-0.90;1.00;;;;;;4998629;28;20396;-78
2023/02/08 06:08:45;;;;;;;7.57;6.47;;;-0.90;1.00;;;;;;4997969;28;20252;-77
2023/02/08 06:11:13;;;;;;;9.95;6.93;;;-0.80;1.00;;;;;;5004008;28;20698;-77
2023/02/08 06:13:41;;;;;;;8.30;5.50;;;-0.80;1.00;;;;;;4997085;28;20303;-78
2023/02/08 06:16:09;;;;;;;6.35;5.25;;;-0.80;1.00;;;;;;4999226;28;20284;-77
2023/02/08 06:18:37;;;;;;;10.20;6.28;;;-1.00;1.00;;;;;;4996461;28;20290;-78
2023/02/08 06:21:06;;;;;;;8.60;6.40;;;-1.00;1.00;;;;;;4997447;28;21044;-78
2023/02/08 06:23:35;;;;;;;6.78;5.70;;;-0.90;1.00;;;;;;4994240;28;20198;-78
2023/02/08 06:26:03;;;;;;;6.70;5.45;;;-0.90;1.00;;;;;;4995344;28;20674;-78
2023/02/08 06:28:31;;;;;;;8.02;6.07;;;-0.90;1.00;;;;;;4993835;28;20207;-78
2023/02/08 06:31:00;;;;;;;10.18;6.18;;;-1.10;1.00;;;;;;4995812;28;20218;-78
2023/02/08 06:33:28;;;;;;;7.68;6.13;;;-0.90;1.00;;;;;;4992492;28;20203;-78
2023/02/08 06:35:56;;;;;;;8.70;6.35;;;-1.00;1.00;;;;;;4994140;28;20589;-78
2023/02/08 06:38:24;;;;;;;5.75;5.15;;;-0.90;1.00;;;;;;4994317;28;21438;-78
2023/02/08 06:40:53;;;;;;;9.13;5.88;;;-0.80;1.00;;;;;;4994984;28;20234;-78
2023/02/08 06:43:22;;;;;;;14.40;7.68;;;-0.60;1.00;;;;;;4995367;28;20606;-78
2023/02/08 06:45:50;;;;;;;8.25;6.15;;;-0.70;1.00;;;;;;4998746;28;20259;-78
2023/02/08 06:48:18;;;;;;;8.60;6.18;;;-0.50;1.00;;;;;;4994166;28;20242;-78
2023/02/08 06:50:46;;;;;;;9.50;6.10;;;-0.60;1.00;;;;;;5000781;28;20600;-77
2023/02/08 06:53:14;;;;;;;12.13;7.15;;;-0.80;1.00;;;;;;4991978;28;20206;-78
2023/02/08 06:55:43;;;;;;;8.75;6.35;;;-0.70;1.00;;;;;;4993033;28;20208;-76
2023/02/08 06:58:13;;;;;;;8.25;6.28;;;-0.70;1.00;;;;;;4995691;28;20377;-77
2023/02/08 07:00:41;;;;;;;9.27;6.07;;;-0.70;1.00;;;;;;5000961;28;20566;-78
2023/02/08 07:03:09;;;;;;;9.73;6.70;;;-0.60;1.00;;;;;;4997876;28;20195;-78
2023/02/08 07:05:38;;;;;;;8.95;6.93;;;-0.50;1.00;;;;;;4997811;28;20911;-78
2023/02/08 07:08:07;;;;;;;7.55;5.88;;;-0.40;1.00;;;;;;4995647;28;20836;-78
2023/02/08 07:10:35;;;;;;;10.40;6.65;;;-0.60;1.00;;;;;;5001270;28;20777;-78
2023/02/08 07:13:03;;;;;;;9.10;6.70;;;-0.50;1.00;;;;;;4999729;28;20223;-79
2023/02/08 07:15:34;;;;;;;10.25;6.93;;;-0.40;1.00;;;;;;5002429;28;20396;-79
2023/02/08 07:18:02;;;;;;;7.75;6.25;;;-0.50;1.00;;;;;;5003138;28;20627;-79
2023/02/08 07:20:30;;;;;;;6.70;6.00;;;-0.50;1.00;;;;;;5003515;28;20839;-78
2023/02/08 07:22:59;;;;;;;7.72;5.40;;;-0.30;1.00;;;;;;5004899;28;20230;-78
2023/02/08 07:25:27;;;;;;;9.60;6.80;;;-0.30;1.00;;;;;;4994817;28;21029;-78
2023/02/08 07:27:55;;;;;;;9.88;6.60;;;-0.30;1.00;;;;;;4999048;28;20247;-79
2023/02/08 07:30:23;;;;;;;7.85;5.93;;;-0.30;1.00;;;;;;4998345;28;20361;-78
2023/02/08 07:32:53;;;;;;;7.88;6.15;;;-0.20;1.00;;;;;;4997526;28;20231;-78
2023/02/08 07:35:21;;;;;;;10.18;6.35;;;-0.10;1.00;;;;;;5000111;28;20218;-79
2023/02/08 07:37:49;;;;;;;10.52;6.85;;;-0.10;1.00;;;;;;5000983;28;20655;-78
2023/02/08 07:40:17;;;;;;;7.05;6.20;;;-0.10;1.00;;;;;;5000602;28;20281;-79
2023/02/08 07:42:46;;;;;;;11.65;6.57;;;0.10;1.00;;;;;;4995826;28;20203;-78
2023/02/08 07:45:14;;;;;;;9.27;6.10;;;0.20;1.00;;;;;;5000482;28;20206;-78
2023/02/08 07:47:42;;;;;;;10.45;7.65;;;0.30;1.00;;;;;;4998334;28;20266;-79
2023/02/08 07:50:11;;;;;;;11.75;6.18;;;0.40;1.00;;;;;;5002609;28;20224;-77
2023/02/08 07:52:42;;;;;;;8.10;6.15;;;0.60;1.00;;;;;;5002495;28;20290;-78
2023/02/08 07:55:10;;;;;;;8.80;6.38;;;0.80;1.00;;;;;;5003028;28;20191;-78
2023/02/08 07:57:38;;;;;;;8.30;6.00;;;1.00;1.00;;;;;;5005570;28;20206;-77
2023/02/08 08:00:09;;;;;;;8.88;6.60;;;1.20;1.00;;;;;;5001134;28;20229;-77
2023/02/08 08:02:37;;;;;;;12.55;6.55;;;1.30;1.00;;;;;;5003230;28;20211;-76
2023/02/08 08:05:06;;;;;;;9.95;6.93;;;1.50;1.00;;;;;;4999382;28;20227;-77
2023/02/08 08:07:36;;;;;;;8.77;6.90;;;1.70;1.00;;;;;;4998335;28;20217;-77
2023/02/08 08:10:05;;;;;;;11.38;7.43;;;1.70;1.00;;;;;;4999316;28;20582;-77
2023/02/08 08:12:33;;;;;;;9.43;6.35;;;2.00;1.00;;;;;;5002529;28;20204;-77
2023/02/08 08:15:01;;;;;;;10.35;6.97;;;2.10;1.00;;;;;;5000748;28;20234;-77
2023/02/08 08:17:29;;;;;;;10.25;7.28;;;2.20;1.00;;;;;;4999946;28;20199;-77
2023/02/08 08:19:57;;;;;;;8.38;6.50;;;2.40;1.00;;;;;;4998006;28;20227;-78
2023/02/08 08:22:26;;;;;;;9.07;7.15;;;2.60;1.00;;;;;;4999622;28;20212;-77
2023/02/08 08:24:57;;;;;;;10.23;7.63;;;2.90;1.00;;;;;;4999771;28;20205;-78
2023/02/08 08:27:26;;;;;;;11.27;7.30;;;3.20;1.00;;;;;;5000186;28;20839;-77
2023/02/08 08:29:54;;;;;;;11.40;7.85;;;3.50;1.00;;;;;;4999993;28;20244;-77
2023/02/08 08:32:22;;;;;;;10.02;7.32;;;3.80;1.00;;;;;;5001719;28;20356;-78
2023/02/08 08:34:50;;;;;;;9.20;6.32;;;4.00;1.00;;;;;;4993642;28;20687;-78
2023/02/08 08:37:18;;;;;;;10.10;6.85;;;4.30;1.00;;;;;;5003227;28;20210;-81
2023/02/08 08:39:47;;;;;;;9.70;6.93;;;4.60;1.00;;;;;;5014168;28;20208;-80
2023/02/08 08:42:16;;;;;;;7.85;6.55;;;4.80;1.00;;;;;;5011172;28;20206;-82
2023/02/08 08:44:44;;;;;;;12.07;6.20;;;5.10;1.00;;;;;;4998347;28;20203;-79
2023/02/08 08:47:13;;;;;;;9.25;6.53;;;5.50;1.00;;;;;;4998830;28;20195;-77
2023/02/08 08:49:42;;;;;;;8.60;6.83;;;5.70;1.00;;;;;;4999344;28;20206;-79
2023/02/08 08:52:11;;;;;;;8.82;6.55;;;6.10;1.00;;;;;;5000121;28;20493;-79
2023/02/08 08:54:39;;;;;;;11.60;6.97;;;6.40;1.00;;;;;;4999193;28;20202;-79
2023/02/08 08:57:07;;;;;;;7.82;5.90;;;6.70;1.00;;;;;;5001356;28;20457;-78
2023/02/08 08:59:36;;;;;;;8.20;6.50;;;6.80;1.00;;;;;;5005004;28;20206;-79
2023/02/08 09:02:04;;;;;;;9.57;6.43;;;7.10;1.00;;;;;;5003687;28;20465;-79
2023/02/08 09:04:33;;;;;;;7.73;6.50;;;7.00;1.00;;;;;;5002106;28;21140;-79
2023/02/08 09:07:01;;;;;;;9.70;6.73;;;7.10;1.00;;;;;;5003122;28;20461;-78
2023/02/08 09:09:30;;;;;;;7.77;5.77;;;7.00;1.00;;;;;;5002500;28;20486;-79
2023/02/08 09:11:58;;;;;;;8.67;6.13;;;6.90;1.00;;;;;;5001517;28;20465;-79
2023/02/08 09:14:26;;;;;;;11.70;5.90;;;7.00;1.00;;;;;;5001771;28;20512;-79
2023/02/08 09:16:56;;;;;;;8.53;6.23;;;6.80;1.00;;;;;;5003455;28;20480;-79
2023/02/08 09:19:24;;;;;;;8.13;6.47;;;6.80;1.00;;;;;;5004182;28;20470;-79
2023/02/08 09:21:52;;;;;;;7.40;5.27;;;6.60;1.00;;;;;;5003517;28;20484;-79
2023/02/08 09:24:20;;;;;;;8.93;5.77;;;6.70;1.00;;;;;;5001157;28;20454;-79
2023/02/08 09:26:49;;;;;;;10.03;5.97;;;6.50;1.00;;;;;;5002908;28;21048;-78
2023/02/08 09:29:17;;;;;;;7.00;5.47;;;6.60;1.00;;;;;;4999691;28;20485;-79
2023/02/08 09:31:45;;;;;;;8.83;6.47;;;6.40;1.00;;;;;;5001944;28;20489;-79
2023/02/08 09:34:15;;;;;;;6.77;6.17;;;6.40;1.00;;;;;;5001675;28;20672;-79
2023/02/08 09:36:43;;;;;;;8.17;5.83;;;6.80;1.00;;;;;;5000424;28;20536;-79
2023/02/08 09:39:14;;;;;;;7.63;6.50;;;6.90;1.00;;;;;;4999148;28;20449;-80
2023/02/08 09:42:09;;;;;;;7.83;5.40;;;7.50;1.00;;;;;;4990799;28;20489;-79
2023/02/08 09:44:49;;;;;;;9.50;5.93;;;8.20;1.00;;;;;;4987478;28;20464;-79
2023/02/08 09:47:22;;;;;;;9.00;6.30;;;8.80;1.00;;;;;;4991220;28;20458;-78
2023/02/08 09:49:58;;;;;;;10.30;6.57;;;8.90;1.00;;;;;;4992583;28;21599;-79
2023/02/08 09:52:33;;;;;;;10.43;7.27;;;8.80;1.00;;;;;;4987395;28;20459;-79
2023/02/08 09:55:21;;;;;;;11.70;6.33;;;9.10;1.00;;;;;;4990136;28;20460;-78
2023/02/08 09:57:53;;;;;;;8.07;6.50;;;9.40;1.00;;;;;;4988402;28;20473;-79
2023/02/08 10:00:27;;;;;;;9.27;6.67;;;9.80;1.00;;;;;;4986459;28;20527;-79
2023/02/08 10:02:59;;;;;;;9.40;6.73;;;10.20;2.20;;;;;;4990256;28;21533;-78
2023/02/08 10:05:30;;;;;;;9.93;6.77;;;10.20;1.00;;;;;;4997804;28;20954;-79
2023/02/08 10:08:00;;;;;;;11.33;7.57;;;10.40;3.10;;;;;;4995915;28;20461;-80
2023/02/08 10:10:42;;;;;;;10.83;7.30;;;10.10;1.00;;;;;;4994411;28;21016;-79
2023/02/08 10:13:22;;;;;;;8.03;7.23;;;10.30;1.50;;;;;;4998004;28;21134;-79
2023/02/08 10:16:18;;;;;;;9.90;7.27;;;10.60;3.40;;;;;;4997534;28;20928;-78
2023/02/08 10:18:52;;;;;;;9.10;7.57;;;10.70;15.90;;;;;;4996788;28;20560;-79
2023/02/08 10:21:39;;;;;;;8.63;6.40;;;11.00;6.90;;;;;;4995002;28;20480;-79
2023/02/08 10:24:23;;;;;;;9.83;6.77;;;10.80;4.90;;;;;;4994077;28;20516;-78
2023/02/08 10:27:02;;;;;;;9.30;7.60;;;11.10;7.20;;;;;;4996199;28;20457;-78
2023/02/08 10:30:11;;;;;;;10.10;6.90;;;11.70;12.70;;;;;;4997412;28;20492;-79
2023/02/08 10:32:51;;;;;;;7.40;6.50;;;11.90;12.60;;;;;;4984013;28;20461;-78
2023/02/08 10:35:25;;;;;;;8.70;5.87;;;12.50;18.20;;;;;;4990826;28;21058;-80
2023/02/08 10:37:56;;;;;;;8.13;6.13;;;12.70;18.10;;;;;;4990404;28;20462;-79
2023/02/08 10:40:34;;;;;;;8.40;6.77;;;13.10;21.40;;;;;;4992665;28;20478;-80
2023/02/08 10:43:17;;;;;;;9.03;6.30;;;13.60;24.40;;;;;;4994957;28;20507;-80
2023/02/08 10:45:51;;;;;;;7.33;6.57;;;14.00;27.30;;;;;;4989977;28;20520;-78
2023/02/08 10:48:31;;;;;;;8.53;7.47;;;13.90;25.80;;;;;;4991685;28;20878;-80
2023/02/08 10:51:00;;;;;;;8.80;7.07;;;14.30;30.00;;;;;;4995639;28;20534;-78
2023/02/08 10:53:29;;;;;;;6.97;6.37;;;14.90;37.50;;;;;;4990585;28;20469;-79
2023/02/08 10:55:57;;;;;;;10.10;6.80;;;15.10;39.40;;;;;;4995906;28;20462;-79
2023/02/08 10:58:26;;;;;;;8.80;7.07;;;15.10;38.70;;;;;;5005445;28;20463;-79
2023/02/08 11:00:57;;;;;;;7.57;6.80;;;15.60;43.30;;;;;;5007490;28;20490;-79
2023/02/08 11:03:28;;;;;;;8.10;7.00;;;15.50;42.30;;;;;;5004955;28;20452;-79
2023/02/08 11:05:56;;;;;;;9.30;7.07;;;15.50;42.60;;;;;;5003414;28;20477;-79
2023/02/08 11:08:26;;;;;;;6.87;6.27;;;15.70;44.10;;;;;;5006648;28;20989;-79
2023/02/08 11:11:02;;;;;;;8.47;6.50;;;15.70;43.20;;;;;;5005222;28;20472;-79
2023/02/08 11:13:35;;;;;;;7.93;6.30;;;14.60;32.30;;;;;;5001980;28;20461;-79
2023/02/08 11:16:06;;;;;;;7.57;5.87;;;14.30;28.90;;;;;;5001263;28;20515;-79
2023/02/08 11:18:37;;;;;;;7.37;6.30;;;14.50;28.80;;;;;;5002098;28;20457;-79
2023/02/08 11:21:09;;;;;;;6.63;5.93;;;13.70;22.50;;;;;;5001245;28;20480;-79
2023/02/08 11:23:41;;;;;;;10.77;6.60;;;12.30;10.90;;;;;;5001403;28;20495;-79
2023/02/08 11:26:23;;;;;;;9.10;6.23;;;12.40;11.60;;;;;;5001369;28;20528;-79
2023/02/08 11:29:04;;;;;;;7.33;5.63;;;13.00;17.40;;;;;;4992891;28;20580;-79
2023/02/08 11:31:34;;;;;;;6.73;5.90;;;13.60;23.20;;;;;;4988696;28;20498;-80
2023/02/08 11:34:04;;;;;;;6.50;5.60;;;14.40;30.00;;;;;;4982330;28;20457;-80
2023/02/08 11:36:34;;;;;;;9.07;6.00;;;15.30;38.10;;;;;;4997100;28;20468;-79
2023/02/08 11:39:15;;;;;;;7.37;5.80;;;15.80;44.10;;;;;;4991705;28;20466;-79
2023/02/08 11:41:46;;;;;;;6.57;5.90;;;15.20;39.10;;;;;;4989631;28;20480;-79
2023/02/08 11:44:21;;;;;;;6.73;6.03;;;13.70;24.20;;;;;;4988201;28;20469;-80
2023/02/08 11:46:51;;;;;;;6.80;5.27;;;12.70;14.80;;;;;;4987167;28;21048;-79
2023/02/08 11:49:25;;;;;;;5.47;4.97;;;11.90;18.60;;;;;;4989296;28;20483;-80
2023/02/08 11:51:53;;;;;;;5.83;5.00;;;11.30;1.90;;;;;;4986846;28;20477;-80
2023/02/08 11:54:39;;;;;;;7.80;5.50;;;10.80;1.00;;;;;;4994433;28;20603;-78
2023/02/08 11:57:19;;;;;;;6.27;5.30;;;10.20;1.00;;;;;;4998268;28;20442;-79
2023/02/08 11:59:48;;;;;;;6.43;5.17;;;9.70;1.00;;;;;;4996524;28;20464;-79
2023/02/08 12:02:34;;;;;;;5.13;4.23;;;9.30;1.00;;;;;;4998865;28;20448;-80
2023/02/08 12:05:04;;;;;;;5.53;4.90;;;9.00;1.00;;;;;;4992107;28;20470;-78
2023/02/08 12:07:47;;;;;;;5.90;4.33;;;8.80;1.00;;;;;;4994730;28;20560;-78
2023/02/08 12:10:48;;;;;;;6.47;4.37;;;9.00;1.00;;;;;;4999541;28;20493;-79
2023/02/08 12:13:44;;;;;;;5.03;4.40;;;8.90;1.00;;;;;;4998885;28;20456;-79
2023/02/08 12:16:31;;;;;;;6.50;4.83;;;9.00;1.00;;;;;;4995771;28;20476;-79
2023/02/08 12:19:25;;;;;;;6.23;4.57;;;8.10;1.00;;;;;;4996123;28;20460;-78
2023/02/08 12:21:59;;;;;;;7.40;4.43;;;8.40;1.00;;;;;;5000306;28;20888;-79
2023/02/08 12:24:37;;;;;;;3.73;3.20;;;8.20;1.00;;;;;;4994197;28;20463;-76
2023/02/08 12:27:18;;;;;;;5.73;3.60;;;7.80;1.00;;;;;;5002066;28;20477;-77
2023/02/08 12:29:53;;;;;;;5.10;4.00;;;7.60;1.00;;;;;;4991789;28;21136;-76
2023/02/08 12:32:47;;;;;;;4.43;4.00;;;7.70;1.00;;;;;;4992910;28;21273;-79
2023/02/08 12:35:42;;;;;;;4.30;3.90;;;7.80;1.00;;;;;;4999117;28;20518;-78
2023/02/08 12:41:56;;;;;;;3.80;3.10;;;8.00;1.00;;;;;;4991487;28;20575;-79
2023/02/08 12:44:46;;;;;;;3.87;3.50;;;7.90;1.00;;;;;;4988722;28;20450;-78
2023/02/08 12:47:36;;;;;;;4.50;3.50;;;8.00;1.00;;;;;;4991333;28;20463;-78
2023/02/08 12:50:11;;;;;;;3.70;3.37;;;8.00;1.00;;;;;;4991860;28;20492;-80
2023/02/08 12:52:44;;;;;;;4.07;3.33;;;7.90;1.00;;;;;;4991078;28;20453;-79
2023/02/08 12:55:18;;;;;;;4.57;3.77;;;7.80;1.00;;;;;;4994878;28;20495;-79
2023/02/08 12:57:51;;;;;;;3.80;3.40;;;7.70;1.00;;;;;;5004488;28;20544;-79
2023/02/08 13:00:23;;;;;;;3.70;2.87;;;7.80;1.00;;;;;;5008421;28;20499;-79
2023/02/08 13:02:58;;;;;;;3.80;3.53;;;8.00;1.00;;;;;;4998519;28;20465;-78
2023/02/08 13:05:33;;;;;;;4.03;3.13;;;8.00;1.00;;;;;;4999654;28;20875;-79
2023/02/08 13:08:07;;;;;;;3.03;2.77;;;8.00;1.00;;;;;;5004041;28;20466;-79
2023/02/08 13:10:39;;;;;;;3.23;2.57;;;7.90;1.00;;;;;;5003363;28;20876;-79
2023/02/08 13:13:15;;;;;;;2.83;2.50;;;7.70;1.00;;;;;;5000260;28;20455;-78
2023/02/08 13:15:52;;;;;;;2.90;2.47;;;7.40;1.00;;;;;;5004814;28;20450;-78
2023/02/08 13:18:25;;;;;;;4.00;2.47;;;7.50;1.00;;;;;;5004302;28;20569;-78
2023/02/08 13:20:59;;;;;;;2.90;2.60;;;7.80;1.00;;;;;;4999113;28;20484;-78
2023/02/08 13:23:30;;;;;;;3.70;3.33;;;7.30;1.00;;;;;;4998817;28;20594;-79
2023/02/08 13:26:08;;;;;;;3.20;2.90;;;7.50;1.00;;;;;;5003045;28;20452;-78
2023/02/08 13:28:39;;;;;;;3.50;3.03;;;7.10;1.00;;;;;;5005822;28;20509;-79
2023/02/08 13:31:12;;;;;;;2.93;2.60;;;7.20;1.00;;;;;;5008845;28;20560;-78